Terminal Aerodrome Forecast
Issued by NWS

Home | Current Version | Previous Version | Text Only | Print | Product List | Glossary On
Versions: 1 2 3 4 5 6 7 8 9 10 11 12 13 14 15 16 17 18 19 20 21 22 23 24 25
000
FTPA31 PHFO 230500
TAFOGG
TAF
PHOG 230536Z 2306/2406 05010G18KT P6SM VCSH SCT020 SCT045
     FM230900 05010KT P6SM FEW020 SCT045
     FM232000 05020G28KT P6SM FEW030 SCT045
     FM240500 05011G19KT P6SM FEW030 SCT045
      AMD LTD TO WX VIS AND WIND 2309/2316=

USA.gov is the U.S. government's official web portal to all federal, state and local government web resources and services.